Terminal Aerodrome Forecast
Issued by NWS Austin/San Antonio, TX

Home | Current Version | Previous Version | Text Only | Print | Product List | Glossary On
Versions: 1 2 3 4 5 6 7 8 9 10 11 12 13 14 15 16 17 18 19 20 21 22 23 24 25 26 27 28 29 30 31 32 33 34 35 36 37 38 39 40 41 42 43 44 45 46 47
000
FTUS44 KEWX 181123
TAFSAT
TAF
KSAT 181123Z 1812/1918 22006KT P6SM SCT015 BKN130 OVC250
      TEMPO 1812/1814 BKN015
     FM181400 30010KT P6SM FEW015
     FM181600 33016G26KT P6SM SCT040
     FM190300 33005KT P6SM SCT120
     FM191500 34009KT P6SM FEW035=

USA.gov is the U.S. government's official web portal to all federal, state and local government web resources and services.